createdAt,value
2023-05-23T00:00:23.746Z,7.90
2023-05-23T00:02:53.163Z,8.10
2023-05-23T00:05:21.912Z,7.67
2023-05-23T00:07:51.953Z,7.37
2023-05-23T00:10:20.678Z,6.93
2023-05-23T00:12:49.490Z,7.60
2023-05-23T00:15:18.094Z,6.97
2023-05-23T00:17:47.071Z,8.30
2023-05-23T00:20:17.106Z,7.40
2023-05-23T00:22:48.762Z,7.53
2023-05-23T00:25:28.036Z,7.07
2023-05-23T00:27:56.729Z,7.37
2023-05-23T00:30:25.321Z,8.10
2023-05-23T00:32:54.672Z,8.30
2023-05-23T00:35:23.741Z,7.63
2023-05-23T00:37:55.033Z,7.60
2023-05-23T00:40:25.695Z,7.20
2023-05-23T00:42:54.212Z,7.10
2023-05-23T00:45:22.972Z,7.57
2023-05-23T00:47:53.025Z,7.73
2023-05-23T00:50:22.158Z,7.07
2023-05-23T00:52:51.734Z,7.27
2023-05-23T00:55:20.891Z,7.73
2023-05-23T00:57:51.459Z,8.00
2023-05-23T01:00:21.648Z,7.10
2023-05-23T01:02:52.160Z,8.13
2023-05-23T01:05:25.813Z,6.63
2023-05-23T01:07:56.218Z,7.33
2023-05-23T01:10:26.409Z,7.63
2023-05-23T01:13:05.785Z,6.93
2023-05-23T01:15:39.160Z,7.80
2023-05-23T01:18:11.554Z,7.43
2023-05-23T01:20:42.876Z,7.60
2023-05-23T01:23:35.132Z,8.90
2023-05-23T01:26:14.833Z,7.83
2023-05-23T01:28:47.858Z,7.00
2023-05-23T01:31:19.054Z,6.70
2023-05-23T01:33:59.686Z,7.70
2023-05-23T01:36:29.352Z,7.50
2023-05-23T01:39:00.105Z,7.57
2023-05-23T01:41:28.678Z,7.83
2023-05-23T01:43:59.149Z,7.60
2023-05-23T01:46:29.335Z,7.60
2023-05-23T01:48:58.772Z,7.83
2023-05-23T01:51:28.736Z,8.63
2023-05-23T01:53:57.453Z,7.40
2023-05-23T01:56:27.315Z,7.50
2023-05-23T01:58:55.750Z,7.60
2023-05-23T02:01:28.450Z,8.23
2023-05-23T02:03:59.875Z,7.90
2023-05-23T02:06:29.113Z,7.43
2023-05-23T02:09:00.134Z,7.80
2023-05-23T02:11:30.835Z,8.07
2023-05-23T02:13:59.432Z,8.60
2023-05-23T02:16:29.965Z,8.10
2023-05-23T02:18:58.842Z,8.47
2023-05-23T02:21:28.598Z,8.47
2023-05-23T02:23:57.327Z,8.27
2023-05-23T02:26:27.772Z,8.67
2023-05-23T02:28:56.377Z,9.23
2023-05-23T02:31:25.454Z,8.53
2023-05-23T02:33:56.990Z,8.50
2023-05-23T02:36:28.072Z,8.30
2023-05-23T02:38:57.884Z,9.03
2023-05-23T02:41:27.557Z,9.07
2023-05-23T02:43:57.571Z,8.57
2023-05-23T02:46:27.344Z,8.43
2023-05-23T02:54:50.637Z,8.50
2023-05-23T02:57:22.032Z,9.30
2023-05-23T02:59:53.921Z,8.53
2023-05-23T03:02:32.141Z,9.67
2023-05-23T03:05:04.604Z,8.67
2023-05-23T03:07:34.064Z,10.20
2023-05-23T03:10:03.352Z,9.60
2023-05-23T03:12:32.180Z,9.20
2023-05-23T03:15:01.097Z,9.23
2023-05-23T03:17:29.896Z,10.33
2023-05-23T03:19:59.454Z,10.63
2023-05-23T03:22:29.703Z,10.07
2023-05-23T03:24:59.537Z,10.03
2023-05-23T03:27:28.792Z,10.03
2023-05-23T03:29:57.653Z,9.87
2023-05-23T03:32:26.852Z,9.33
2023-05-23T03:35:00.455Z,9.40
2023-05-23T03:37:33.319Z,9.50
2023-05-23T03:40:06.434Z,9.47
2023-05-23T03:42:36.516Z,10.90
2023-05-23T03:45:06.164Z,10.37
2023-05-23T03:47:37.900Z,9.60
2023-05-23T03:50:08.293Z,11.00
2023-05-23T03:52:39.160Z,10.50
2023-05-23T03:55:09.881Z,10.83
2023-05-23T03:57:41.723Z,11.20
2023-05-23T04:00:15.462Z,10.57
2023-05-23T04:03:01.966Z,11.10
2023-05-23T04:05:30.785Z,11.03
2023-05-23T04:08:03.417Z,10.57
2023-05-23T04:10:33.437Z,11.00
2023-05-23T04:13:04.774Z,10.77
2023-05-23T04:15:35.319Z,10.63
2023-05-23T04:18:04.119Z,11.17
2023-05-23T04:20:35.449Z,10.60
2023-05-23T04:23:06.187Z,10.57
2023-05-23T04:25:40.662Z,11.40
2023-05-23T04:28:11.331Z,11.50
2023-05-23T04:30:45.100Z,11.67
2023-05-23T04:33:15.960Z,12.63
2023-05-23T04:35:45.028Z,11.53
2023-05-23T04:38:16.563Z,11.90
2023-05-23T04:40:45.257Z,11.87
2023-05-23T04:43:14.905Z,12.00
2023-05-23T04:45:47.799Z,11.70
2023-05-23T04:48:17.426Z,11.87
2023-05-23T04:50:47.764Z,12.37
2023-05-23T04:53:20.029Z,11.80
2023-05-23T04:55:51.286Z,12.20
2023-05-23T04:58:22.779Z,11.93
2023-05-23T05:00:51.575Z,12.20
2023-05-23T05:03:25.374Z,10.93
2023-05-23T05:05:54.784Z,12.70
2023-05-23T05:08:25.090Z,12.73
2023-05-23T05:10:53.830Z,12.07
2023-05-23T05:13:22.343Z,12.10
2023-05-23T05:15:53.212Z,13.27
2023-05-23T05:18:22.061Z,13.37
2023-05-23T05:20:50.953Z,12.70
2023-05-23T05:23:19.588Z,13.03
2023-05-23T05:25:49.493Z,12.50
2023-05-23T05:28:25.977Z,11.57
2023-05-23T05:33:50.790Z,13.17
2023-05-23T05:36:19.670Z,12.97
2023-05-23T05:38:51.391Z,12.27
2023-05-23T05:42:10.698Z,12.77
2023-05-23T05:50:04.942Z,12.83
2023-05-23T05:52:47.906Z,12.73
2023-05-23T06:04:15.342Z,12.17
2023-05-23T06:06:44.128Z,14.07
2023-05-23T06:09:14.852Z,13.03
2023-05-23T06:11:44.572Z,13.83
2023-05-23T06:14:13.882Z,13.87
2023-05-23T06:16:43.432Z,13.43
2023-05-23T06:19:12.344Z,13.43
2023-05-23T06:21:56.895Z,12.40
2023-05-23T06:24:32.201Z,13.10
2023-05-23T06:27:00.865Z,12.97
2023-05-23T06:29:44.602Z,13.17
2023-05-23T06:35:16.890Z,13.97
2023-05-23T06:37:46.539Z,14.20
2023-05-23T06:40:15.000Z,14.17
2023-05-23T06:42:43.635Z,14.47
2023-05-23T06:45:15.687Z,14.17
2023-05-23T06:47:45.569Z,13.67
2023-05-23T06:50:13.898Z,13.63
2023-05-23T06:52:43.732Z,13.60
2023-05-23T06:55:18.098Z,13.90
2023-05-23T06:57:46.873Z,14.03
2023-05-23T07:00:15.534Z,14.70
2023-05-23T07:02:45.482Z,16.03
2023-05-23T07:05:13.788Z,16.90
2023-05-23T07:07:42.020Z,14.47
2023-05-23T07:10:11.120Z,15.20
2023-05-23T07:12:40.738Z,16.10
2023-05-23T07:15:09.585Z,15.47
2023-05-23T07:17:37.824Z,14.43
2023-05-23T07:20:06.896Z,16.30
2023-05-23T07:22:35.132Z,15.77
2023-05-23T07:25:03.365Z,15.20
2023-05-23T07:27:31.582Z,15.80
2023-05-23T07:30:01.345Z,14.67
2023-05-23T07:32:29.667Z,14.37
2023-05-23T07:34:58.126Z,14.97
2023-05-23T07:37:27.434Z,14.37
2023-05-23T07:39:55.883Z,15.27
2023-05-23T07:42:24.336Z,15.40
2023-05-23T07:44:52.527Z,15.87
2023-05-23T07:47:22.197Z,15.47
2023-05-23T07:49:51.972Z,15.27
2023-05-23T07:52:20.173Z,16.63
2023-05-23T07:54:48.392Z,15.40
2023-05-23T07:57:16.764Z,16.60
2023-05-23T07:59:44.961Z,15.93
2023-05-23T08:02:13.216Z,16.87
2023-05-23T08:04:42.981Z,16.33
2023-05-23T08:07:11.485Z,15.83
2023-05-23T08:09:40.226Z,17.10
2023-05-23T08:12:08.523Z,15.77
2023-05-23T08:14:49.877Z,15.87
2023-05-23T08:17:19.453Z,15.47
2023-05-23T08:19:49.053Z,16.03
2023-05-23T08:22:17.371Z,15.37
2023-05-23T08:24:45.593Z,14.60
2023-05-23T08:27:13.780Z,15.43
2023-05-23T08:29:42.809Z,16.07
2023-05-23T08:32:11.414Z,15.63
2023-05-23T08:34:39.813Z,16.27
2023-05-23T08:37:09.667Z,17.93
2023-05-23T08:39:37.940Z,16.13
2023-05-23T08:42:06.457Z,17.47
2023-05-23T08:44:34.797Z,16.40
2023-05-23T08:47:06.364Z,17.53
2023-05-23T08:49:34.589Z,17.93
2023-05-23T08:52:04.278Z,15.93
2023-05-23T08:54:34.136Z,16.77
2023-05-23T08:57:02.856Z,16.27
2023-05-23T08:59:31.936Z,15.53
2023-05-23T09:02:00.214Z,16.47
2023-05-23T09:04:29.145Z,18.07
2023-05-23T09:06:58.421Z,16.97
2023-05-23T09:09:26.864Z,15.73
2023-05-23T09:11:57.067Z,16.53
2023-05-23T09:14:27.056Z,16.17
2023-05-23T09:16:56.434Z,16.43
2023-05-23T09:19:24.607Z,16.43
2023-05-23T09:21:55.312Z,16.97
2023-05-23T09:24:23.891Z,15.57
2023-05-23T09:26:52.058Z,17.13
2023-05-23T09:29:22.642Z,17.03
2023-05-23T09:31:51.074Z,16.70
2023-05-23T09:34:20.380Z,17.07
2023-05-23T09:36:48.617Z,16.27
2023-05-23T09:39:17.059Z,17.13
2023-05-23T09:41:45.335Z,16.03
2023-05-23T09:44:14.643Z,16.00
2023-05-23T09:46:44.291Z,16.40
2023-05-23T09:49:19.047Z,16.13
2023-05-23T09:51:59.349Z,16.47
2023-05-23T09:54:27.908Z,16.53
2023-05-23T09:56:57.707Z,16.30
2023-05-23T09:59:29.003Z,15.33
2023-05-23T10:01:59.160Z,15.47
2023-05-23T10:04:28.817Z,16.30
2023-05-23T10:07:00.059Z,17.00
2023-05-23T10:09:30.209Z,17.40
2023-05-23T10:12:22.680Z,17.63
2023-05-23T10:14:53.968Z,17.17
2023-05-23T10:17:28.048Z,16.40
2023-05-23T10:20:01.314Z,16.63
2023-05-23T10:22:29.834Z,18.47
2023-05-23T10:24:58.532Z,18.07
2023-05-23T10:27:26.938Z,17.67
2023-05-23T10:29:55.242Z,16.93
2023-05-23T10:32:25.750Z,17.53
2023-05-23T10:34:58.726Z,17.10
2023-05-23T10:37:31.761Z,17.53
2023-05-23T10:40:02.844Z,17.57
2023-05-23T10:42:36.936Z,17.00
2023-05-23T10:45:20.170Z,15.30
2023-05-23T10:47:53.607Z,15.83
2023-05-23T10:50:34.880Z,17.37
2023-05-23T10:53:03.916Z,16.13
2023-05-23T10:55:35.675Z,16.10
2023-05-23T10:58:11.278Z,16.70
2023-05-23T11:00:39.726Z,17.17
2023-05-23T11:03:11.564Z,16.23
2023-05-23T11:05:49.231Z,16.13
2023-05-23T11:08:17.906Z,14.17
2023-05-23T11:10:56.161Z,13.30
2023-05-23T11:13:25.129Z,12.50
2023-05-23T11:15:54.689Z,12.57
2023-05-23T11:18:25.578Z,11.67
2023-05-23T11:20:54.618Z,12.83
2023-05-23T11:23:23.321Z,11.50
2023-05-23T11:25:52.333Z,12.03
2023-05-23T11:28:20.841Z,12.77
2023-05-23T11:30:52.453Z,11.13
2023-05-23T11:33:21.266Z,12.87
2023-05-23T11:35:51.802Z,11.40
2023-05-23T11:38:20.411Z,11.87
2023-05-23T11:40:48.682Z,11.70
2023-05-23T11:43:18.080Z,10.87
2023-05-23T11:45:47.422Z,11.10
2023-05-23T11:48:16.643Z,10.90
2023-05-23T11:50:46.212Z,10.83
2023-05-23T11:53:18.498Z,11.37
2023-05-23T11:55:54.340Z,10.73
2023-05-23T11:58:22.827Z,11.23
2023-05-23T12:00:52.299Z,11.40
2023-05-23T12:03:22.998Z,10.83
2023-05-23T12:05:51.487Z,12.03
2023-05-23T12:08:25.232Z,13.13
2023-05-23T12:10:54.147Z,11.30
2023-05-23T12:13:25.692Z,11.57
2023-05-23T12:15:56.367Z,10.77
2023-05-23T12:18:24.951Z,10.37
2023-05-23T12:20:53.702Z,11.43
2023-05-23T12:23:24.039Z,11.47
2023-05-23T12:25:56.088Z,11.07
2023-05-23T12:28:36.183Z,10.87
2023-05-23T12:31:10.486Z,10.87
2023-05-23T12:33:40.546Z,11.37
2023-05-23T12:36:10.605Z,11.67
2023-05-23T12:38:45.088Z,11.97
2023-05-23T12:41:13.982Z,10.50
2023-05-23T12:43:42.221Z,10.33
2023-05-23T12:46:10.451Z,10.33
2023-05-23T12:48:39.623Z,9.57
2023-05-23T12:51:07.904Z,9.87
2023-05-23T12:53:36.595Z,9.60
2023-05-23T12:56:06.448Z,9.10
2023-05-23T12:58:35.262Z,9.33
2023-05-23T13:01:05.744Z,9.47
2023-05-23T13:03:34.019Z,10.53
2023-05-23T13:06:02.634Z,10.53
2023-05-23T13:08:30.835Z,9.93
2023-05-23T13:10:59.080Z,10.60
2023-05-23T13:13:28.661Z,10.03
2023-05-23T13:15:57.691Z,10.23
2023-05-23T13:18:26.230Z,10.37
2023-05-23T13:20:54.867Z,10.30
2023-05-23T13:23:24.597Z,9.33
2023-05-23T13:25:52.844Z,9.93
2023-05-23T13:28:21.086Z,11.80
2023-05-23T13:30:50.821Z,10.07
2023-05-23T13:33:19.897Z,10.70
2023-05-23T13:35:49.213Z,10.23
2023-05-23T13:38:17.584Z,10.43
2023-05-23T13:40:45.974Z,9.87
2023-05-23T13:43:14.465Z,9.93
2023-05-23T13:45:42.859Z,9.83
2023-05-23T13:48:12.495Z,9.43
2023-05-23T13:50:40.848Z,9.63
2023-05-23T13:53:16.652Z,9.83
2023-05-23T13:55:46.013Z,9.13
2023-05-23T13:58:14.358Z,8.67
2023-05-23T14:00:43.149Z,9.27
2023-05-23T14:03:13.148Z,9.67
2023-05-23T14:05:42.031Z,8.83
2023-05-23T14:08:11.779Z,8.63
2023-05-23T14:10:40.438Z,9.07
2023-05-23T14:13:08.904Z,8.97
2023-05-23T14:15:38.432Z,9.93
2023-05-23T14:18:07.565Z,8.50
2023-05-23T14:20:37.497Z,8.70
2023-05-23T14:23:05.748Z,9.10
2023-05-23T14:25:34.070Z,8.90
2023-05-23T14:28:02.232Z,9.43
2023-05-23T14:30:30.439Z,9.67
2023-05-23T14:32:58.717Z,9.33
2023-05-23T14:35:29.450Z,9.63
2023-05-23T14:38:01.946Z,8.87
2023-05-23T14:40:30.158Z,9.20
2023-05-23T14:42:58.463Z,8.43
2023-05-23T14:45:27.298Z,8.97
2023-05-23T14:47:55.774Z,8.17
2023-05-23T14:50:24.428Z,8.00
2023-05-23T14:52:52.630Z,7.87
2023-05-23T14:55:22.276Z,8.23
2023-05-23T14:57:51.034Z,7.43
2023-05-23T15:00:19.845Z,8.03
2023-05-23T15:02:48.504Z,7.50
2023-05-23T15:05:17.092Z,7.37
2023-05-23T15:07:45.488Z,7.53
2023-05-23T15:10:13.814Z,8.60
2023-05-23T15:12:44.034Z,8.43
2023-05-23T15:15:12.975Z,7.83
2023-05-23T15:17:41.338Z,7.33
2023-05-23T15:20:10.174Z,7.90
2023-05-23T15:22:39.729Z,7.50
2023-05-23T15:25:09.130Z,7.40
2023-05-23T15:27:37.436Z,7.23
2023-05-23T15:30:07.844Z,7.70
2023-05-23T15:32:36.030Z,7.60
2023-05-23T15:35:04.691Z,7.83
2023-05-23T15:37:33.120Z,8.47
2023-05-23T15:40:02.567Z,8.30
2023-05-23T15:42:31.989Z,8.30
2023-05-23T15:45:00.219Z,7.77
2023-05-23T15:47:29.787Z,7.80
2023-05-23T15:49:58.097Z,8.13
2023-05-23T15:52:26.535Z,7.50
2023-05-23T15:54:55.048Z,7.97
2023-05-23T15:57:23.435Z,8.30
2023-05-23T15:59:51.914Z,6.97
2023-05-23T16:02:20.730Z,6.83
2023-05-23T16:04:50.452Z,7.03
2023-05-23T16:07:19.880Z,6.37
2023-05-23T16:09:48.372Z,6.30
2023-05-23T16:12:16.572Z,5.87
2023-05-23T16:14:44.972Z,6.50
2023-05-23T16:17:13.736Z,6.60
2023-05-23T16:19:43.171Z,5.60
2023-05-23T16:22:12.706Z,12.03
2023-05-23T16:24:40.926Z,6.00
2023-05-23T16:27:09.145Z,5.10
2023-05-23T16:29:37.394Z,6.10
2023-05-23T16:32:05.870Z,6.17
2023-05-23T16:34:35.656Z,5.63
2023-05-23T16:37:03.896Z,5.60
2023-05-23T16:39:33.451Z,5.47
2023-05-23T16:42:02.015Z,5.60
2023-05-23T16:44:30.223Z,5.37
2023-05-23T16:46:58.481Z,4.63
2023-05-23T16:49:26.782Z,4.47
2023-05-23T16:51:55.059Z,4.70
2023-05-23T16:54:23.250Z,3.93
2023-05-23T16:56:52.869Z,4.13
2023-05-23T16:59:21.304Z,4.10
2023-05-23T17:01:49.682Z,3.83
2023-05-23T17:04:20.367Z,4.10
2023-05-23T17:06:50.244Z,3.37
2023-05-23T17:09:19.344Z,3.73
2023-05-23T17:11:47.580Z,4.13
2023-05-23T17:14:17.446Z,3.67
2023-05-23T17:16:45.645Z,4.10
2023-05-23T17:19:13.872Z,3.80
2023-05-23T17:21:42.104Z,3.50
2023-05-23T17:24:10.342Z,3.33
2023-05-23T17:26:38.559Z,3.50
2023-05-23T17:29:07.111Z,3.50
2023-05-23T17:31:36.832Z,3.20
2023-05-23T17:34:05.194Z,3.20
2023-05-23T17:36:35.050Z,2.80
2023-05-23T17:39:03.443Z,3.13
2023-05-23T17:41:31.694Z,2.60
2023-05-23T17:44:00.999Z,2.80
2023-05-23T17:46:29.297Z,3.17
2023-05-23T17:48:59.037Z,3.03
2023-05-23T17:51:27.245Z,3.27
2023-05-23T17:53:55.464Z,3.17
2023-05-23T17:56:24.774Z,2.70
2023-05-23T17:58:53.192Z,2.73
2023-05-23T18:01:21.758Z,3.07
2023-05-23T18:03:50.252Z,3.27
2023-05-23T18:06:19.946Z,2.67
2023-05-23T18:08:48.300Z,2.87
2023-05-23T18:11:16.494Z,2.40
2023-05-23T18:13:44.956Z,2.80
2023-05-23T18:16:13.647Z,2.90
2023-05-23T18:18:42.062Z,2.77
2023-05-23T18:21:10.346Z,2.60
2023-05-23T18:23:39.953Z,2.97
2023-05-23T18:26:09.062Z,2.93
2023-05-23T18:28:37.336Z,2.60
2023-05-23T18:31:05.733Z,2.93
2023-05-23T18:33:34.060Z,2.30
2023-05-23T18:36:03.300Z,2.87
2023-05-23T18:38:31.800Z,2.40
2023-05-23T18:41:01.467Z,2.50
2023-05-23T18:43:30.025Z,2.37
2023-05-23T18:45:58.828Z,3.00
2023-05-23T18:48:27.448Z,2.33
2023-05-23T18:50:55.636Z,2.17
2023-05-23T18:53:24.230Z,2.27
2023-05-23T18:55:52.416Z,2.90
2023-05-23T18:58:22.259Z,1.93
2023-05-23T19:00:51.009Z,2.00
2023-05-23T19:03:19.381Z,2.37
2023-05-23T19:05:48.774Z,2.80
2023-05-23T19:08:17.601Z,2.63
2023-05-23T19:10:46.350Z,2.17
2023-05-23T19:13:14.973Z,2.00
2023-05-23T19:15:46.222Z,2.23
2023-05-23T19:18:15.011Z,2.33
2023-05-23T19:20:43.709Z,2.40
2023-05-23T19:23:12.725Z,2.43
2023-05-23T19:25:42.304Z,2.33
2023-05-23T19:28:11.064Z,2.40
2023-05-23T19:30:41.084Z,2.60
2023-05-23T19:33:11.521Z,2.57
2023-05-23T19:35:40.277Z,2.70
2023-05-23T19:38:08.803Z,2.43
2023-05-23T19:40:38.126Z,2.30
2023-05-23T19:43:06.588Z,2.70
2023-05-23T19:45:36.853Z,3.00
2023-05-23T19:48:05.860Z,2.90
2023-05-23T19:50:35.848Z,2.60
2023-05-23T19:53:04.361Z,2.53
2023-05-23T19:55:32.711Z,2.67
2023-05-23T19:58:01.255Z,2.47
2023-05-23T20:00:29.830Z,2.53
2023-05-23T20:02:58.521Z,2.67
2023-05-23T20:05:27.489Z,2.40
2023-05-23T20:07:57.421Z,2.50
2023-05-23T20:10:26.163Z,2.20
2023-05-23T20:12:54.659Z,2.40
2023-05-23T20:15:38.068Z,2.70
2023-05-23T20:18:08.458Z,2.37
2023-05-23T20:20:36.983Z,2.67
2023-05-23T20:23:07.521Z,2.50
2023-05-23T20:25:36.089Z,2.57
2023-05-23T20:28:04.638Z,2.33
2023-05-23T20:30:33.139Z,2.37
2023-05-23T20:33:01.707Z,2.50
2023-05-23T20:35:30.447Z,2.60
2023-05-23T20:37:59.445Z,2.97
2023-05-23T20:40:29.731Z,2.43
2023-05-23T20:43:04.610Z,2.80
2023-05-23T20:45:33.525Z,2.67
2023-05-23T20:48:02.132Z,2.90
2023-05-23T20:50:31.446Z,2.73
2023-05-23T20:53:02.175Z,3.07
2023-05-23T20:55:34.923Z,2.90
2023-05-23T20:58:03.248Z,2.60
2023-05-23T21:00:31.722Z,2.50
2023-05-23T21:03:00.262Z,2.97
2023-05-23T21:05:28.693Z,2.77
2023-05-23T21:07:58.061Z,3.07
2023-05-23T21:10:26.406Z,2.80
2023-05-23T21:12:56.355Z,2.70
2023-05-23T21:15:24.777Z,3.47
2023-05-23T21:17:53.201Z,3.00
2023-05-23T21:20:22.333Z,3.07
2023-05-23T21:22:50.815Z,2.93
2023-05-23T21:25:19.633Z,2.90
2023-05-23T21:27:48.210Z,3.20
2023-05-23T21:30:17.968Z,2.80
2023-05-23T21:32:46.465Z,2.50
2023-05-23T21:35:14.961Z,2.77
2023-05-23T21:37:43.619Z,2.63
2023-05-23T21:40:12.513Z,3.33
2023-05-23T21:42:40.914Z,3.00
2023-05-23T21:45:10.105Z,3.10
2023-05-23T21:47:40.984Z,2.70
2023-05-23T21:50:11.080Z,2.63
2023-05-23T21:52:39.831Z,2.93
2023-05-23T21:55:08.359Z,3.10
2023-05-23T21:57:36.771Z,3.03
2023-05-23T22:00:12.236Z,2.73
2023-05-23T22:02:44.416Z,2.90
2023-05-23T22:05:13.289Z,3.43
2023-05-23T22:07:41.852Z,3.17
2023-05-23T22:10:10.991Z,2.80
2023-05-23T22:12:40.070Z,3.10
2023-05-23T22:15:09.425Z,2.77
2023-05-23T22:17:37.850Z,3.10
2023-05-23T22:20:08.343Z,2.73
2023-05-23T22:22:38.474Z,3.00
2023-05-23T22:25:08.705Z,3.17
2023-05-23T22:27:37.083Z,2.77
2023-05-23T22:30:05.758Z,3.10
2023-05-23T22:32:34.252Z,2.90
2023-05-23T22:35:02.853Z,3.30
2023-05-23T22:37:32.736Z,3.17
2023-05-23T22:40:01.073Z,3.10
2023-05-23T22:42:29.551Z,3.40
2023-05-23T22:44:58.013Z,3.30
2023-05-23T22:47:29.440Z,3.20
2023-05-23T22:49:59.702Z,3.17
2023-05-23T22:52:28.638Z,3.03
2023-05-23T22:54:58.662Z,3.30
2023-05-23T22:57:27.147Z,3.00
2023-05-23T22:59:56.080Z,3.13
2023-05-23T23:02:24.629Z,3.60
2023-05-23T23:04:53.223Z,3.63
2023-05-23T23:07:21.811Z,3.07
2023-05-23T23:09:50.271Z,3.80
2023-05-23T23:12:21.196Z,3.00
2023-05-23T23:14:49.621Z,3.47
2023-05-23T23:17:18.067Z,3.40
2023-05-23T23:19:46.914Z,3.10
2023-05-23T23:22:15.351Z,3.20
2023-05-23T23:24:44.724Z,3.37
2023-05-23T23:27:13.184Z,3.17
2023-05-23T23:29:43.226Z,3.50
2023-05-23T23:32:12.150Z,3.37
2023-05-23T23:34:41.268Z,4.17
2023-05-23T23:37:10.383Z,3.13
2023-05-23T23:39:38.783Z,3.43
2023-05-23T23:42:07.301Z,3.40
2023-05-23T23:44:35.815Z,3.30
2023-05-23T23:47:05.732Z,3.13
2023-05-23T23:49:34.327Z,3.20
2023-05-23T23:52:03.875Z,3.17
2023-05-23T23:54:32.272Z,4.00
2023-05-23T23:57:01.195Z,3.30
2023-05-23T23:59:29.677Z,3.23
